Hlavní strana
METAR-TAF:

METAR-TAF

Letiště :

Bogotá, Kolumbie

zeměpisná šířka: 04-43N, zeměpisná délka: 074-09W, výška: 2547 m

Aktuální stav počasí

Zpráva byla vytvořena před 58 minutami, v 05:00 UTC
Severozápadní vítr 5 kt
Teplota 13°C
Vlhkost vzduchu 88%
Tlak 1028 hPa
Viditelnost 10 km a více
Skoro jasno ve výšce 1700 ft
Oblačno až skoro zataženo ve výšce 7000 ft

METAR: SKBO 210500Z 32005KT 9999 FEW017 BKN070 13/11 A3036 NOSIG

Čas: 00:58 (05:58 UTC)

Předpověď počasí

Zpráva byla vytvořena před 1 hodinou a 28 minutami, v 04:30 UTC
Předpověď platná od 21 v 06 UTC do 22 v 06 UTC
vítr z různých směrů 2 kt
Viditelnost 10 km a více
Skoro jasno ve výšce 2000 ft
Polojasno ve výšce 7000 ft
Změna
od 21 v 15 UTC do 21 v 17 UTC
Jihovýchodní vítr 11 kt
Změna
od 21 v 19 UTC do 21 v 21 UTC
Severozápadní vítr 10 kt

TAF: SKBO 210430Z 2106/2206 VRB02KT 9999 FEW020 SCT070 BECMG 2115/2117 14011KT BECMG 2119/2121 32010KT TX21/2118Z TN09/2110Z

Stav a předpovědi počasí z více než 4 000 letišť (zprávy METAR a TAF).

Červené a žluté tečky na mapě představují dostupné meteorologické stanice.

Když kurzor umístíte na tečku, zobrazí se název stanice.

Pak kliknutím zobrazíte stav a předpověď počasí.

Chcete-li změnit mapu, kliknutím na zelené tlačítko se znaménkem +mapu přiblížíte, kliknutím na zelené tlačítko se znaménkem – mapu oddálíte a kliknutím na zelené šipky přejdete na sousední mapy.


METAR-TAF: